Time;durP1;ratioP1;P1;durP2;ratioP2;P2;SDS_P1;SDS_P2;PMS_P1;PMS_P2;Temp;Humidity;BMP_temperature;BMP_pressure;BME280_temperature;BME280_humidity;BME280_pressure;Samples;Min_cycle;Max_cycle;Signal;HPM_P1;HPM_P2
2023/01/11 00:01:37;;;;;;;4.47;0.70;;;6.20;99.90;;;;;;4958566;28;20762;-83
2023/01/11 00:04:02;;;;;;;3.73;0.93;;;6.30;99.90;;;;;;4991588;28;20212;-86
2023/01/11 00:06:28;;;;;;;2.20;0.73;;;6.30;99.90;;;;;;4975942;28;20189;-86
2023/01/11 00:08:55;;;;;;;2.40;0.77;;;6.30;99.90;;;;;;4992527;28;20189;-80
2023/01/11 00:11:20;;;;;;;1.42;0.80;;;6.30;99.90;;;;;;4958488;28;20205;-81
2023/01/11 00:13:46;;;;;;;3.30;0.93;;;6.40;99.90;;;;;;4974510;28;20200;-81
2023/01/11 00:16:12;;;;;;;0.83;0.60;;;6.50;99.90;;;;;;4992175;28;20217;-81
2023/01/11 00:18:38;;;;;;;2.30;0.90;;;6.40;99.90;;;;;;4991446;28;20206;-82
2023/01/11 00:21:04;;;;;;;2.70;0.70;;;6.50;99.90;;;;;;4990707;28;20445;-80
2023/01/11 00:23:37;;;;;;;5.60;1.47;;;6.60;99.90;;;;;;4976653;28;20197;-80
2023/01/11 00:26:04;;;;;;;1.00;0.90;;;6.60;99.90;;;;;;4974364;28;20428;-80
2023/01/11 00:28:30;;;;;;;1.97;0.80;;;6.50;99.90;;;;;;4991531;28;20933;-79
2023/01/11 00:30:56;;;;;;;3.73;1.07;;;6.50;99.90;;;;;;4990051;28;20503;-80
2023/01/11 00:33:21;;;;;;;2.90;0.93;;;6.50;99.90;;;;;;4992050;28;20249;-81
2023/01/11 00:35:50;;;;;;;1.27;0.70;;;6.60;99.90;;;;;;4992068;28;20212;-80
2023/01/11 00:38:42;;;;;;;1.87;0.80;;;6.60;99.90;;;;;;4992378;28;20643;-79
2023/01/11 00:47:55;;;;;;;2.20;0.60;;;6.60;99.90;;;;;;4990419;28;20451;-81
2023/01/11 00:49:14;;;;;;;1.20;0.57;;;6.70;99.90;;;;;;4976448;28;20468;-79
2023/01/11 00:51:40;;;;;;;4.90;0.70;;;6.80;99.90;;;;;;4973579;28;20500;-81
2023/01/11 00:54:05;;;;;;;1.47;0.50;;;6.80;99.90;;;;;;4957645;28;20194;-81
2023/01/11 00:56:31;;;;;;;1.60;0.50;;;6.80;99.90;;;;;;4989504;28;20774;-81
2023/01/11 00:58:56;;;;;;;2.07;0.73;;;6.80;99.90;;;;;;4973492;28;20658;-82
2023/01/11 01:01:22;;;;;;;1.10;0.70;;;6.90;99.90;;;;;;4957377;28;20240;-82
2023/01/11 01:03:48;;;;;;;2.67;1.00;;;7.00;99.90;;;;;;4957237;28;20216;-82
2023/01/11 01:06:13;;;;;;;1.93;0.50;;;7.00;99.90;;;;;;4989686;28;20194;-80
2023/01/11 01:08:39;;;;;;;1.33;0.90;;;7.10;99.90;;;;;;4991141;28;20635;-80
2023/01/11 01:11:04;;;;;;;1.43;0.70;;;7.10;99.90;;;;;;4993538;28;20622;-81
2023/01/11 01:16:14;;;;;;;2.40;0.70;;;7.20;99.90;;;;;;4993675;28;20688;-80
2023/01/11 01:18:40;;;;;;;3.77;0.80;;;7.30;99.90;;;;;;4976359;28;20417;-80
2023/01/11 01:21:06;;;;;;;3.40;0.90;;;7.20;99.90;;;;;;4994315;28;20229;-80
2023/01/11 01:23:31;;;;;;;1.90;0.87;;;7.20;99.90;;;;;;4976937;28;20428;-80
2023/01/11 01:25:57;;;;;;;1.13;0.93;;;7.10;99.90;;;;;;4993416;28;20193;-80
2023/01/11 01:28:24;;;;;;;1.57;0.90;;;7.20;99.90;;;;;;4992491;28;20659;-80
2023/01/11 01:30:52;;;;;;;4.13;1.33;;;6.90;99.90;;;;;;4975200;28;20194;-81
2023/01/11 01:33:18;;;;;;;1.10;0.80;;;6.90;99.90;;;;;;4975197;28;20459;-79
2023/01/11 01:35:44;;;;;;;1.83;0.60;;;6.80;99.90;;;;;;4991555;28;20468;-79
2023/01/11 01:38:09;;;;;;;2.63;0.93;;;6.80;99.90;;;;;;4993793;28;20189;-80
2023/01/11 01:40:43;;;;;;;1.77;0.80;;;6.60;99.90;;;;;;4960209;28;20189;-82
2023/01/11 01:43:14;;;;;;;2.23;0.90;;;6.80;99.90;;;;;;4976202;28;20188;-84
2023/01/11 01:45:41;;;;;;;3.10;0.90;;;6.60;99.90;;;;;;4993655;28;20427;-84
2023/01/11 01:48:11;;;;;;;2.20;0.70;;;6.60;99.90;;;;;;4975462;28;20435;-83
2023/01/11 01:50:43;;;;;;;2.40;0.70;;;6.50;99.90;;;;;;4975663;28;20524;-84
2023/01/11 01:53:13;;;;;;;1.70;0.70;;;6.60;99.90;;;;;;4975038;28;20491;-83
2023/01/11 01:55:42;;;;;;;3.73;1.30;;;6.70;99.90;;;;;;4975136;28;20478;-82
2023/01/11 01:58:15;;;;;;;1.53;0.77;;;6.70;99.90;;;;;;4992196;28;20841;-79
2023/01/11 02:00:44;;;;;;;1.93;0.80;;;6.70;99.90;;;;;;4991788;28;20501;-81
2023/01/11 02:03:14;;;;;;;2.53;1.20;;;6.60;99.90;;;;;;4991252;28;20426;-80
2023/01/11 02:05:40;;;;;;;0.80;0.70;;;6.60;99.90;;;;;;4989146;28;20886;-79
2023/01/11 02:08:15;;;;;;;3.53;0.90;;;6.50;99.90;;;;;;4989650;28;20436;-79
2023/01/11 02:10:41;;;;;;;1.57;0.90;;;6.50;99.90;;;;;;4989563;28;20176;-79
2023/01/11 02:13:09;;;;;;;2.00;0.70;;;6.60;99.90;;;;;;4971821;28;20518;-80
2023/01/11 02:15:36;;;;;;;1.10;0.90;;;6.70;99.90;;;;;;4971770;28;21036;-79
2023/01/11 02:18:02;;;;;;;1.00;0.50;;;6.60;99.90;;;;;;4989688;28;20433;-79
2023/01/11 02:20:42;;;;;;;2.50;0.87;;;6.60;99.90;;;;;;4972102;28;20515;-78
2023/01/11 02:23:38;;;;;;;1.27;0.83;;;6.60;99.90;;;;;;4989481;28;20397;-79
2023/01/11 02:26:43;;;;;;;1.57;0.70;;;6.70;99.90;;;;;;4987777;28;21004;-81
2023/01/11 02:29:28;;;;;;;1.40;0.67;;;6.80;99.90;;;;;;4989484;28;20428;-78
2023/01/11 02:32:27;;;;;;;2.60;0.80;;;6.90;99.90;;;;;;4989130;28;20452;-78
2023/01/11 02:35:09;;;;;;;0.80;0.50;;;6.90;99.90;;;;;;4952259;28;20427;-78
2023/01/11 02:38:00;;;;;;;1.73;0.70;;;6.90;99.90;;;;;;4989034;28;20433;-79
2023/01/11 02:40:45;;;;;;;1.63;0.60;;;6.90;99.90;;;;;;4971490;28;20437;-79
2023/01/11 02:46:19;;;;;;;1.90;0.80;;;6.90;99.90;;;;;;4989434;28;20484;-79
2023/01/11 02:49:17;;;;;;;1.43;0.70;;;6.90;99.90;;;;;;4988461;28;20424;-80
2023/01/11 02:51:52;;;;;;;1.33;0.53;;;6.90;99.90;;;;;;4971877;28;20448;-79
2023/01/11 02:54:21;;;;;;;1.53;0.60;;;7.00;99.90;;;;;;4971867;28;20459;-80
2023/01/11 02:56:49;;;;;;;1.00;0.50;;;7.00;99.90;;;;;;4972820;28;20476;-84
2023/01/11 02:59:20;;;;;;;3.27;0.87;;;7.10;99.90;;;;;;4974043;28;20448;-83
2023/01/11 03:01:48;;;;;;;0.80;0.50;;;7.30;99.90;;;;;;4976579;28;20452;-85
2023/01/11 03:04:28;;;;;;;5.97;0.70;;;7.20;99.90;;;;;;4976238;28;20432;-84
2023/01/11 03:07:12;;;;;;;0.77;0.53;;;7.30;99.90;;;;;;4975866;28;20439;-83
2023/01/11 03:10:03;;;;;;;0.90;0.60;;;7.30;99.90;;;;;;4975901;28;20425;-83
2023/01/11 03:13:10;;;;;;;1.40;0.50;;;7.40;99.90;;;;;;4993529;28;20436;-83
2023/01/11 03:15:52;;;;;;;0.83;0.50;;;7.50;99.90;;;;;;4993458;28;20472;-83
2023/01/11 03:18:27;;;;;;;1.97;0.60;;;7.50;99.90;;;;;;4992053;28;20421;-83
2023/01/11 03:21:43;;;;;;;0.90;0.50;;;7.50;99.90;;;;;;4991767;28;20413;-80
2023/01/11 03:24:36;;;;;;;1.07;0.60;;;7.60;99.90;;;;;;4950423;28;20423;-81
2023/01/11 03:27:26;;;;;;;1.27;0.80;;;7.60;99.90;;;;;;4950734;29;20431;-82
2023/01/11 03:30:15;;;;;;;1.30;0.53;;;7.70;99.90;;;;;;4970548;28;20428;-83
2023/01/11 03:33:02;;;;;;;2.80;0.60;;;7.60;99.90;;;;;;4992456;28;20539;-81
2023/01/11 03:35:31;;;;;;;0.90;0.70;;;7.70;99.90;;;;;;4991962;28;20457;-81
2023/01/11 03:38:08;;;;;;;1.27;0.50;;;7.80;99.90;;;;;;4990739;28;20430;-82
2023/01/11 03:40:44;;;;;;;1.00;0.60;;;7.70;99.90;;;;;;4991864;28;20460;-82
2023/01/11 03:43:12;;;;;;;2.13;0.50;;;7.70;99.90;;;;;;4974436;28;20423;-82
2023/01/11 03:45:52;;;;;;;5.00;1.23;;;7.70;99.90;;;;;;4974247;28;20429;-82
2023/01/11 03:48:38;;;;;;;0.97;0.53;;;7.80;99.90;;;;;;4990416;28;20425;-82
2023/01/11 03:51:11;;;;;;;0.80;0.57;;;7.80;99.90;;;;;;4974325;28;20461;-82
2023/01/11 03:53:38;;;;;;;2.60;0.73;;;7.90;99.90;;;;;;4991937;28;20444;-79
2023/01/11 03:56:09;;;;;;;1.20;0.60;;;7.90;99.90;;;;;;4974152;28;20476;-79
2023/01/11 03:58:35;;;;;;;1.30;0.73;;;7.70;99.90;;;;;;4974295;28;21308;-79
2023/01/11 04:01:01;;;;;;;2.10;0.70;;;7.70;99.90;;;;;;4992322;28;20476;-80
2023/01/11 04:03:27;;;;;;;3.03;0.90;;;7.70;99.90;;;;;;4991062;28;20559;-80
2023/01/11 04:05:57;;;;;;;1.83;0.60;;;7.70;99.90;;;;;;4974785;28;20539;-79
2023/01/11 04:08:23;;;;;;;2.53;0.70;;;7.70;99.90;;;;;;4974990;28;20425;-79
2023/01/11 04:10:48;;;;;;;0.90;0.60;;;7.80;99.90;;;;;;4974149;28;20444;-79
2023/01/11 04:13:14;;;;;;;5.53;0.90;;;7.80;99.90;;;;;;4991282;28;20651;-80
2023/01/11 04:15:39;;;;;;;0.80;0.50;;;7.80;99.90;;;;;;4975053;28;20220;-80
2023/01/11 04:18:05;;;;;;;1.23;0.70;;;7.80;99.90;;;;;;4974848;28;20193;-81
2023/01/11 04:20:32;;;;;;;1.47;0.60;;;7.80;99.90;;;;;;4974538;28;20237;-80
2023/01/11 04:22:58;;;;;;;1.07;0.70;;;7.80;99.90;;;;;;4975489;28;20453;-83
2023/01/11 04:25:24;;;;;;;1.00;0.50;;;7.80;99.90;;;;;;4975240;28;20938;-77
2023/01/11 04:27:49;;;;;;;0.70;0.40;;;7.80;99.90;;;;;;4991820;28;20186;-83
2023/01/11 04:30:15;;;;;;;1.73;0.60;;;7.80;99.90;;;;;;4990824;28;20770;-81
2023/01/11 04:32:41;;;;;;;1.00;0.60;;;7.80;99.90;;;;;;4973580;28;20225;-80
2023/01/11 04:35:07;;;;;;;1.10;0.53;;;7.90;99.90;;;;;;4973991;28;20535;-81
2023/01/11 04:37:32;;;;;;;1.37;0.50;;;7.90;99.90;;;;;;4973498;28;20301;-80
2023/01/11 04:39:58;;;;;;;0.73;0.50;;;7.80;99.90;;;;;;4991259;28;20568;-82
2023/01/11 04:42:24;;;;;;;1.33;0.50;;;7.80;99.90;;;;;;4973673;28;20209;-82
2023/01/11 04:44:51;;;;;;;2.17;0.60;;;8.00;99.90;;;;;;4973944;28;20189;-82
2023/01/11 04:47:19;;;;;;;4.40;0.60;;;7.70;99.90;;;;;;4991110;28;20475;-83
2023/01/11 04:49:44;;;;;;;0.73;0.50;;;7.70;99.90;;;;;;4973063;28;20538;-83
2023/01/11 04:52:12;;;;;;;2.57;0.70;;;7.60;99.90;;;;;;4989104;28;20974;-83
2023/01/11 04:54:38;;;;;;;2.03;0.50;;;7.70;99.90;;;;;;4973554;28;20965;-82
2023/01/11 04:57:04;;;;;;;1.07;0.50;;;7.90;99.90;;;;;;4972836;28;20464;-81
2023/01/11 04:59:29;;;;;;;2.10;0.63;;;7.80;99.90;;;;;;4990222;28;20662;-80
2023/01/11 05:01:55;;;;;;;0.80;0.50;;;7.70;99.90;;;;;;4973422;28;20452;-80
2023/01/11 05:04:20;;;;;;;1.43;0.50;;;7.60;99.90;;;;;;4990061;28;20201;-81
2023/01/11 05:06:46;;;;;;;2.40;0.50;;;7.70;99.90;;;;;;4973283;28;20544;-81
2023/01/11 05:09:17;;;;;;;1.63;0.60;;;7.60;99.90;;;;;;4973470;28;20190;-82
2023/01/11 05:11:43;;;;;;;0.80;0.60;;;7.60;99.90;;;;;;4972892;28;20692;-80
2023/01/11 05:14:09;;;;;;;1.70;0.60;;;7.60;99.90;;;;;;4991078;28;20413;-81
2023/01/11 05:16:35;;;;;;;1.43;0.80;;;7.60;99.90;;;;;;4989307;28;20850;-81
2023/01/11 05:19:01;;;;;;;1.03;0.60;;;7.60;99.90;;;;;;4973229;28;20186;-80
2023/01/11 05:21:32;;;;;;;1.90;0.70;;;7.60;99.90;;;;;;4956271;28;20487;-80
2023/01/11 05:23:59;;;;;;;2.33;0.80;;;7.60;99.90;;;;;;4972928;28;20791;-81
2023/01/11 05:26:28;;;;;;;1.43;0.70;;;7.60;99.90;;;;;;4990390;28;20417;-81
2023/01/11 05:28:55;;;;;;;1.30;0.70;;;7.60;99.90;;;;;;4991757;28;21232;-82
2023/01/11 05:31:21;;;;;;;2.00;0.70;;;7.70;99.90;;;;;;4989143;28;20448;-83
2023/01/11 05:33:47;;;;;;;2.20;0.50;;;7.60;99.90;;;;;;4989102;28;20441;-77
2023/01/11 05:36:16;;;;;;;1.27;0.73;;;7.70;99.90;;;;;;4989894;28;20969;-77
2023/01/11 05:38:44;;;;;;;4.40;0.67;;;7.70;99.90;;;;;;4989948;28;20425;-77
2023/01/11 05:41:09;;;;;;;0.90;0.60;;;7.70;99.90;;;;;;4972133;28;20531;-76
2023/01/11 05:46:21;;;;;;;1.00;0.60;;;7.80;99.90;;;;;;4990125;28;20197;-76
2023/01/11 05:48:47;;;;;;;1.87;0.70;;;8.00;99.90;;;;;;4990035;28;21096;-76
2023/01/11 05:51:12;;;;;;;1.00;0.77;;;7.80;99.90;;;;;;4987240;28;20452;-77
2023/01/11 05:53:38;;;;;;;0.70;0.57;;;7.80;99.90;;;;;;4987344;28;20473;-77
2023/01/11 05:56:04;;;;;;;0.80;0.60;;;7.80;99.90;;;;;;4988351;28;20949;-79
2023/01/11 05:58:29;;;;;;;0.90;0.80;;;7.90;99.90;;;;;;4973019;28;20197;-78
2023/01/11 06:00:55;;;;;;;0.80;0.50;;;7.90;99.90;;;;;;4987999;28;20561;-78
2023/01/11 06:03:23;;;;;;;1.53;0.50;;;8.00;99.90;;;;;;4989800;28;20186;-78
2023/01/11 06:05:49;;;;;;;1.10;0.60;;;7.90;99.90;;;;;;4989977;28;20428;-79
2023/01/11 06:08:14;;;;;;;0.90;0.70;;;7.90;99.90;;;;;;4990218;28;20461;-79
2023/01/11 06:10:40;;;;;;;1.47;0.90;;;7.90;99.90;;;;;;4972513;28;20501;-77
2023/01/11 06:15:50;;;;;;;2.30;0.70;;;7.90;99.90;;;;;;4988663;28;20215;-78
2023/01/11 06:18:15;;;;;;;1.73;0.90;;;7.90;99.90;;;;;;4989129;28;20421;-78
2023/01/11 06:20:41;;;;;;;3.57;0.77;;;7.90;99.90;;;;;;4955349;28;20244;-78
2023/01/11 06:23:07;;;;;;;2.50;0.70;;;7.90;99.90;;;;;;4987721;28;20209;-77
2023/01/11 06:25:36;;;;;;;1.07;0.70;;;7.90;99.90;;;;;;4987042;28;20355;-77
2023/01/11 06:28:03;;;;;;;2.20;0.90;;;8.00;99.90;;;;;;4987768;28;20216;-77
2023/01/11 06:30:28;;;;;;;1.00;0.60;;;8.00;99.90;;;;;;4971319;28;20449;-77
2023/01/11 06:32:54;;;;;;;2.13;0.50;;;8.00;99.90;;;;;;4987778;28;20497;-78
2023/01/11 06:35:19;;;;;;;1.30;0.73;;;8.10;99.90;;;;;;4974669;28;20186;-78
2023/01/11 06:37:45;;;;;;;1.63;0.60;;;8.10;99.90;;;;;;4992308;28;20280;-78
2023/01/11 06:40:11;;;;;;;1.00;0.50;;;8.10;99.90;;;;;;4974655;28;20277;-77
2023/01/11 06:42:37;;;;;;;1.10;0.70;;;8.20;99.90;;;;;;4991932;28;20432;-77
2023/01/11 06:45:03;;;;;;;1.83;0.50;;;8.20;99.90;;;;;;4974902;28;20425;-78
2023/01/11 06:47:29;;;;;;;1.57;0.60;;;8.20;99.90;;;;;;4974248;28;20201;-78
2023/01/11 06:49:54;;;;;;;1.00;0.50;;;8.20;99.90;;;;;;4990351;28;20437;-78
2023/01/11 06:52:20;;;;;;;0.97;0.50;;;8.20;99.90;;;;;;4990633;28;20206;-77
2023/01/11 06:54:46;;;;;;;0.70;0.50;;;8.30;99.90;;;;;;4992984;28;20190;-78
2023/01/11 06:57:11;;;;;;;1.43;0.53;;;8.30;99.90;;;;;;4991902;28;20996;-76
2023/01/11 06:59:38;;;;;;;0.80;0.60;;;8.40;99.90;;;;;;4991717;28;20233;-76
2023/01/11 07:02:04;;;;;;;1.93;0.73;;;8.30;99.90;;;;;;4992250;28;20198;-77
2023/01/11 07:04:30;;;;;;;1.63;0.80;;;8.20;99.90;;;;;;4991464;28;20471;-77
2023/01/11 07:06:56;;;;;;;1.87;0.80;;;8.10;99.90;;;;;;4991636;28;20841;-77
2023/01/11 07:09:22;;;;;;;5.00;0.60;;;8.10;99.90;;;;;;4974149;28;20437;-78
2023/01/11 07:11:47;;;;;;;1.83;0.83;;;8.10;99.90;;;;;;4999691;28;20199;-77
2023/01/11 07:14:18;;;;;;;0.93;0.90;;;8.00;99.90;;;;;;5008413;28;20198;-77
2023/01/11 07:16:44;;;;;;;1.83;0.80;;;7.90;99.90;;;;;;5008362;28;20975;-78
2023/01/11 07:19:10;;;;;;;2.30;0.97;;;7.80;99.90;;;;;;5010062;28;20962;-78
2023/01/11 07:21:35;;;;;;;2.30;0.80;;;7.80;99.90;;;;;;5000099;28;20444;-77
2023/01/11 07:24:01;;;;;;;1.47;0.80;;;7.80;99.90;;;;;;4990542;28;20248;-77
2023/01/11 07:26:28;;;;;;;3.20;1.30;;;7.80;99.90;;;;;;4991726;28;20190;-78
2023/01/11 07:28:54;;;;;;;4.40;0.90;;;7.70;99.90;;;;;;4989550;28;20482;-77
2023/01/11 07:31:19;;;;;;;1.60;0.90;;;7.70;99.90;;;;;;4972965;28;20797;-77
2023/01/11 07:33:45;;;;;;;2.43;1.00;;;7.80;99.90;;;;;;4989714;28;20252;-77
2023/01/11 07:36:11;;;;;;;0.90;0.67;;;7.80;99.90;;;;;;4991372;28;20210;-77
2023/01/11 07:38:36;;;;;;;1.43;0.77;;;7.80;99.90;;;;;;4990915;28;20183;-78
2023/01/11 07:43:10;;;;;;;1.87;0.70;;;7.90;99.90;;;;;;4991024;28;20746;-77
2023/01/11 07:43:47;;;;;;;4.50;0.70;;;7.90;99.90;;;;;;4990827;28;20189;-77
2023/01/11 07:46:13;;;;;;;2.30;0.80;;;7.90;99.90;;;;;;4990272;28;20437;-77
2023/01/11 07:48:38;;;;;;;2.63;1.00;;;8.00;99.90;;;;;;4989906;28;20189;-77
2023/01/11 07:51:04;;;;;;;1.67;0.80;;;8.10;99.90;;;;;;4991424;28;20217;-78
2023/01/11 07:53:30;;;;;;;1.10;0.50;;;8.10;99.90;;;;;;4991427;28;20193;-77
2023/01/11 07:55:55;;;;;;;1.37;0.60;;;8.20;99.90;;;;;;4991332;28;20225;-78
2023/01/11 07:58:21;;;;;;;1.47;0.87;;;8.50;99.90;;;;;;4991290;28;20174;-78
2023/01/11 08:00:47;;;;;;;2.63;1.10;;;8.30;99.90;;;;;;4989633;28;20186;-77
2023/01/11 08:03:12;;;;;;;1.30;0.70;;;8.20;99.90;;;;;;4991194;28;20189;-77
2023/01/11 08:05:39;;;;;;;1.87;0.97;;;8.40;99.90;;;;;;4989811;28;20190;-77
2023/01/11 08:08:05;;;;;;;0.90;0.77;;;8.40;99.90;;;;;;4973439;28;20616;-77
2023/01/11 08:10:32;;;;;;;2.60;0.80;;;8.70;99.90;;;;;;4973468;28;20977;-78
2023/01/11 08:15:42;;;;;;;1.53;0.70;;;8.60;99.90;;;;;;4989949;28;22314;-78
2023/01/11 08:18:10;;;;;;;2.60;0.70;;;8.50;99.90;;;;;;4990605;28;20457;-77
2023/01/11 08:20:36;;;;;;;3.23;0.60;;;8.60;99.90;;;;;;4989541;28;20186;-78
2023/01/11 08:23:06;;;;;;;1.00;0.80;;;8.70;99.90;;;;;;4990757;28;20828;-77
2023/01/11 08:25:32;;;;;;;0.80;0.60;;;8.80;99.90;;;;;;4972906;28;20479;-77
2023/01/11 08:28:00;;;;;;;1.57;0.70;;;8.80;99.90;;;;;;4990411;28;20417;-77
2023/01/11 08:30:25;;;;;;;1.47;0.87;;;8.80;99.90;;;;;;4989852;28;20487;-77
2023/01/11 08:32:51;;;;;;;2.00;0.67;;;8.90;99.90;;;;;;4989737;28;20468;-77
2023/01/11 08:35:17;;;;;;;8.37;3.20;;;8.90;99.90;;;;;;4989955;28;20667;-77
2023/01/11 08:37:42;;;;;;;5.00;2.17;;;9.00;99.90;;;;;;4988292;28;20765;-77
2023/01/11 08:40:08;;;;;;;1.73;1.20;;;9.00;99.90;;;;;;4990180;28;20181;-77
2023/01/11 08:42:34;;;;;;;0.90;0.60;;;9.10;99.90;;;;;;4989884;28;20691;-77
2023/01/11 08:44:59;;;;;;;1.30;0.60;;;9.10;99.90;;;;;;4989617;28;20475;-77
2023/01/11 08:47:25;;;;;;;0.90;0.50;;;9.00;99.90;;;;;;4989523;28;20189;-77
2023/01/11 08:49:51;;;;;;;2.30;0.60;;;9.20;99.90;;;;;;4988209;28;20719;-76
2023/01/11 08:52:17;;;;;;;0.90;0.50;;;9.20;99.90;;;;;;4989611;28;20472;-77
2023/01/11 08:54:42;;;;;;;1.30;0.80;;;9.30;99.90;;;;;;4988415;28;20753;-77
2023/01/11 08:57:09;;;;;;;1.87;0.63;;;9.30;99.90;;;;;;4989781;28;20675;-77
2023/01/11 08:59:34;;;;;;;0.90;0.50;;;9.30;99.90;;;;;;4989736;28;20177;-77
2023/01/11 09:02:01;;;;;;;1.33;0.63;;;9.30;99.90;;;;;;4971964;28;20437;-76
2023/01/11 09:04:27;;;;;;;1.20;0.53;;;9.30;99.90;;;;;;4988185;28;20182;-77
2023/01/11 09:06:53;;;;;;;1.23;0.60;;;9.30;99.90;;;;;;4989720;28;20433;-77
2023/01/11 09:09:19;;;;;;;5.27;0.73;;;9.30;99.90;;;;;;4989264;28;20483;-77
2023/01/11 09:11:53;;;;;;;0.80;0.67;;;9.30;99.90;;;;;;4989478;28;20206;-77
2023/01/11 09:14:20;;;;;;;0.90;0.57;;;9.30;99.90;;;;;;4988501;28;20416;-77
2023/01/11 09:16:46;;;;;;;1.10;0.50;;;9.30;99.90;;;;;;4971524;28;20466;-76
2023/01/11 09:19:11;;;;;;;1.17;0.60;;;9.20;99.90;;;;;;4987771;28;20475;-77
2023/01/11 09:21:37;;;;;;;6.90;0.90;;;9.30;99.90;;;;;;4988737;28;20209;-77
2023/01/11 09:24:03;;;;;;;3.17;0.80;;;9.30;99.90;;;;;;4989205;28;20190;-77
2023/01/11 09:26:29;;;;;;;1.07;0.60;;;9.20;99.90;;;;;;4971266;28;20287;-76
2023/01/11 09:28:55;;;;;;;3.30;0.57;;;9.20;99.90;;;;;;4971484;28;21248;-77
2023/01/11 09:31:20;;;;;;;0.70;0.50;;;9.30;99.90;;;;;;4989247;28;20209;-77
2023/01/11 09:33:46;;;;;;;1.17;0.63;;;9.30;99.90;;;;;;4971915;28;20579;-78
2023/01/11 09:36:13;;;;;;;2.03;0.97;;;9.40;99.90;;;;;;4972457;28;20218;-77
2023/01/11 09:38:40;;;;;;;1.20;0.80;;;9.40;99.90;;;;;;4989713;28;20181;-77
2023/01/11 09:41:22;;;;;;;0.90;0.77;;;9.30;99.90;;;;;;4989587;28;21366;-77
2023/01/11 09:43:58;;;;;;;1.60;0.90;;;9.50;99.90;;;;;;4989267;28;20420;-77
2023/01/11 09:46:28;;;;;;;0.90;0.63;;;9.50;99.90;;;;;;4989344;28;20906;-78
2023/01/11 09:48:58;;;;;;;1.00;0.50;;;9.50;99.90;;;;;;4989042;28;20425;-77
2023/01/11 09:51:32;;;;;;;2.40;0.70;;;9.50;99.90;;;;;;4989501;28;20441;-77
2023/01/11 09:54:00;;;;;;;0.80;0.53;;;9.60;99.90;;;;;;4989118;28;20416;-78
2023/01/11 09:56:32;;;;;;;0.80;0.60;;;9.60;99.90;;;;;;4989352;28;20501;-77
2023/01/11 09:59:13;;;;;;;0.80;0.70;;;9.60;99.90;;;;;;4987718;28;20424;-78
2023/01/11 10:01:46;;;;;;;1.10;0.77;;;9.60;99.90;;;;;;4987797;28;20507;-78
2023/01/11 10:04:24;;;;;;;0.80;0.57;;;9.60;99.90;;;;;;4989141;28;21268;-77
2023/01/11 10:07:11;;;;;;;0.80;0.50;;;9.60;99.90;;;;;;4988513;28;20430;-79
2023/01/11 10:09:55;;;;;;;0.83;0.67;;;9.60;99.90;;;;;;4993254;28;20402;-80
2023/01/11 10:12:30;;;;;;;1.23;0.53;;;9.60;99.90;;;;;;4993966;28;20436;-78
2023/01/11 10:15:26;;;;;;;1.43;0.60;;;9.70;99.90;;;;;;4976142;28;20504;-78
2023/01/11 10:17:52;;;;;;;1.00;0.70;;;9.80;99.90;;;;;;4978857;28;20893;-79
2023/01/11 10:20:40;;;;;;;0.80;0.60;;;9.70;99.90;;;;;;4994421;28;20413;-79
2023/01/11 10:23:35;;;;;;;1.53;0.63;;;9.60;99.90;;;;;;4974978;28;20571;-78
2023/01/11 10:26:08;;;;;;;0.80;0.60;;;9.70;99.90;;;;;;4973091;28;20423;-78
2023/01/11 10:28:45;;;;;;;0.80;0.50;;;9.70;99.90;;;;;;4991560;28;20444;-78
2023/01/11 10:31:43;;;;;;;0.80;0.53;;;9.60;99.90;;;;;;4992933;28;20447;-78
2023/01/11 10:34:37;;;;;;;1.13;0.70;;;9.60;99.90;;;;;;4992706;28;20412;-78
2023/01/11 10:40:25;;;;;;;0.80;0.60;;;9.60;99.90;;;;;;4992536;28;20471;-78
2023/01/11 10:42:58;;;;;;;0.97;0.60;;;9.60;99.90;;;;;;4992567;28;20432;-79
2023/01/11 10:45:42;;;;;;;1.20;0.80;;;9.70;99.90;;;;;;4975637;28;20440;-78
2023/01/11 10:48:33;;;;;;;2.07;0.73;;;9.60;99.90;;;;;;4976992;28;20435;-77
2023/01/11 10:51:28;;;;;;;1.70;1.00;;;9.60;99.90;;;;;;4987166;28;20503;-77
2023/01/11 10:54:12;;;;;;;0.90;0.60;;;9.50;99.90;;;;;;4992023;28;20420;-77
2023/01/11 10:57:12;;;;;;;1.33;0.90;;;9.60;99.90;;;;;;4991871;28;20503;-77
2023/01/11 11:00:04;;;;;;;1.87;1.03;;;9.50;99.90;;;;;;4991826;28;20409;-77
2023/01/11 11:02:35;;;;;;;1.37;1.03;;;9.50;99.90;;;;;;4991757;28;20456;-77
2023/01/11 11:05:08;;;;;;;2.60;0.87;;;9.50;99.90;;;;;;4990029;28;20463;-77
2023/01/11 11:07:55;;;;;;;0.93;0.83;;;9.50;99.90;;;;;;4973777;28;20511;-77
2023/01/11 11:10:47;;;;;;;3.80;0.70;;;9.60;99.90;;;;;;4975926;28;20420;-82
2023/01/11 11:13:21;;;;;;;1.37;1.00;;;9.60;99.90;;;;;;4970999;28;20878;-82
2023/01/11 11:16:17;;;;;;;1.57;0.63;;;9.70;99.90;;;;;;4974865;28;20476;-81
2023/01/11 11:18:43;;;;;;;1.53;0.87;;;9.60;99.90;;;;;;4991024;28;20783;-82
2023/01/11 11:21:22;;;;;;;1.93;0.80;;;9.60;99.90;;;;;;4988969;28;20449;-82
2023/01/11 11:23:55;;;;;;;1.93;0.70;;;9.70;99.90;;;;;;4973975;28;20185;-83
2023/01/11 11:26:23;;;;;;;12.40;5.77;;;9.80;99.90;;;;;;4991834;28;21232;-81
2023/01/11 11:29:06;;;;;;;1.20;0.73;;;9.80;99.90;;;;;;4991308;28;20552;-82
2023/01/11 11:31:34;;;;;;;2.60;0.87;;;9.80;99.90;;;;;;4957901;28;20480;-81
2023/01/11 11:34:13;;;;;;;1.00;0.70;;;9.80;99.90;;;;;;4974966;28;20529;-78
2023/01/11 11:36:44;;;;;;;1.27;0.60;;;9.90;99.90;;;;;;4990810;28;20545;-76
2023/01/11 11:39:20;;;;;;;1.43;0.90;;;9.90;99.90;;;;;;4989532;28;20429;-77
2023/01/11 11:41:55;;;;;;;1.00;0.60;;;9.90;99.90;;;;;;4990200;28;20459;-76
2023/01/11 11:44:26;;;;;;;2.20;0.60;;;9.90;99.90;;;;;;4991933;28;20413;-76
2023/01/11 11:46:55;;;;;;;0.90;0.60;;;10.00;99.90;;;;;;4974274;28;20973;-77
2023/01/11 11:49:21;;;;;;;2.37;0.80;;;10.00;99.90;;;;;;4992226;28;20452;-78
2023/01/11 11:51:47;;;;;;;2.13;0.90;;;9.90;99.90;;;;;;5000691;28;20453;-77
2023/01/11 11:54:28;;;;;;;0.70;0.50;;;10.00;99.90;;;;;;4975563;28;20202;-77
2023/01/11 11:56:55;;;;;;;0.70;0.50;;;10.00;99.90;;;;;;4990180;28;20468;-77
2023/01/11 11:59:24;;;;;;;1.40;0.90;;;10.00;99.90;;;;;;4974030;28;20525;-77
2023/01/11 12:02:03;;;;;;;1.70;0.70;;;10.10;99.90;;;;;;4991016;28;20444;-78
2023/01/11 12:04:42;;;;;;;1.60;0.50;;;10.10;99.90;;;;;;4973163;28;20461;-77
2023/01/11 12:07:17;;;;;;;1.93;0.60;;;10.20;99.90;;;;;;4972980;28;20447;-80
2023/01/11 12:09:53;;;;;;;0.90;0.80;;;10.30;99.90;;;;;;4973170;28;20433;-79
2023/01/11 12:12:21;;;;;;;1.30;0.70;;;10.30;99.90;;;;;;4990756;28;20950;-79
2023/01/11 12:15:17;;;;;;;0.80;0.80;;;10.30;99.90;;;;;;4989555;28;20432;-80
2023/01/11 12:17:43;;;;;;;1.50;0.90;;;10.30;99.90;;;;;;4991688;28;20476;-79
2023/01/11 12:20:21;;;;;;;0.80;0.63;;;10.40;99.90;;;;;;4990211;28;20771;-80
2023/01/11 12:23:07;;;;;;;0.77;0.47;;;10.40;99.90;;;;;;4991374;28;20751;-80
2023/01/11 12:25:39;;;;;;;0.80;0.57;;;10.50;99.90;;;;;;4973640;28;20969;-80
2023/01/11 12:28:10;;;;;;;0.73;0.40;;;10.50;99.90;;;;;;4992084;28;20414;-80
2023/01/11 12:30:56;;;;;;;0.90;0.70;;;10.60;99.90;;;;;;4991107;28;20869;-80
2023/01/11 12:33:27;;;;;;;2.40;1.60;;;10.70;99.90;;;;;;4992733;28;20866;-80
2023/01/11 12:36:09;;;;;;;1.57;0.90;;;10.80;99.90;;;;;;4973811;28;20466;-80
2023/01/11 12:38:43;;;;;;;0.90;0.47;;;10.80;99.90;;;;;;4973756;28;20442;-79
2023/01/11 12:41:42;;;;;;;0.70;0.40;;;10.90;99.90;;;;;;4990334;28;20553;-80
2023/01/11 12:44:17;;;;;;;0.90;0.80;;;10.90;99.90;;;;;;4991558;28;20509;-79
2023/01/11 12:47:02;;;;;;;1.10;0.70;;;11.00;99.90;;;;;;4989574;28;20959;-80
2023/01/11 12:49:49;;;;;;;0.70;0.43;;;11.00;99.90;;;;;;4989901;28;20476;-79
2023/01/11 12:52:41;;;;;;;0.60;0.40;;;11.00;99.90;;;;;;4973531;28;20935;-79
2023/01/11 12:55:26;;;;;;;0.80;0.40;;;11.00;99.90;;;;;;4990793;28;20465;-81
2023/01/11 12:57:59;;;;;;;0.60;0.40;;;11.00;99.90;;;;;;4991980;28;20497;-81
2023/01/11 13:00:57;;;;;;;0.90;0.50;;;11.00;99.90;;;;;;4991754;28;20550;-80
2023/01/11 13:03:32;;;;;;;1.00;0.50;;;11.00;99.90;;;;;;4991783;28;20887;-80
2023/01/11 13:06:10;;;;;;;1.57;0.50;;;11.10;99.90;;;;;;4973512;28;20935;-81
2023/01/11 13:08:52;;;;;;;0.70;0.50;;;11.00;99.90;;;;;;4973849;28;20425;-81
2023/01/11 13:11:36;;;;;;;1.00;0.50;;;10.90;99.90;;;;;;4991314;28;20454;-80
2023/01/11 13:14:17;;;;;;;2.00;0.40;;;10.90;99.90;;;;;;4990882;28;20427;-80
2023/01/11 13:17:01;;;;;;;0.70;0.40;;;10.80;99.90;;;;;;4991576;28;20470;-80
2023/01/11 13:19:36;;;;;;;0.90;0.73;;;10.70;99.90;;;;;;4993262;28;20420;-80
2023/01/11 13:22:09;;;;;;;0.80;0.53;;;10.70;99.90;;;;;;4994337;28;20433;-79
2023/01/11 13:24:36;;;;;;;0.80;0.53;;;10.60;99.90;;;;;;4992915;28;20908;-81
2023/01/11 13:27:04;;;;;;;0.70;0.47;;;10.50;99.90;;;;;;4991756;28;20472;-80
2023/01/11 13:29:36;;;;;;;0.70;0.43;;;10.50;99.90;;;;;;4990902;28;20433;-80
2023/01/11 13:32:07;;;;;;;0.70;0.40;;;10.40;99.90;;;;;;4990956;28;20826;-80
2023/01/11 13:34:35;;;;;;;0.80;0.40;;;10.40;99.90;;;;;;4972594;28;20520;-79
2023/01/11 13:37:25;;;;;;;0.80;0.60;;;10.30;99.90;;;;;;4989839;28;20879;-79
2023/01/11 13:39:57;;;;;;;0.60;0.40;;;10.20;99.90;;;;;;4968469;28;20456;-79
2023/01/11 13:42:32;;;;;;;0.90;0.60;;;10.20;99.90;;;;;;4989425;28;20493;-79